Time;durP1;ratioP1;P1;durP2;ratioP2;P2;SDS_P1;SDS_P2;PMS_P1;PMS_P2;Temp;Humidity;BMP_temperature;BMP_pressure;BME280_temperature;BME280_humidity;BME280_pressure;Samples;Min_cycle;Max_cycle;Signal;HPM_P1;HPM_P2
2023/06/13 00:03:05;;;;;;;1.50;0.80;;;;;;;10.60;54.40;99781.07;435779;1256;138746;-70
2023/06/13 00:13:08;;;;;;;1.60;1.00;;;;;;;10.51;54.61;99771.45;435840;1256;138773;-71
2023/06/13 00:23:12;;;;;;;1.70;1.40;;;;;;;10.51;54.93;99760.79;435664;1256;138595;-71
2023/06/13 00:33:16;;;;;;;1.80;0.80;;;;;;;10.58;55.09;99738.30;436304;1256;139262;-71
2023/06/13 00:43:19;;;;;;;0.60;0.60;;;;;;;10.62;55.41;99710.94;436066;1256;140535;-71
2023/06/13 00:53:22;;;;;;;1.40;0.60;;;;;;;10.61;55.80;99693.61;436149;1256;138880;-69
2023/06/13 01:03:25;;;;;;;1.00;0.60;;;;;;;10.59;56.05;99686.08;436399;1251;138121;-70
2023/06/13 01:13:36;;;;;;;0.90;0.80;;;;;;;10.55;56.45;99669.19;435972;1254;138408;-70
2023/06/13 01:23:52;;;;;;;0.80;0.50;;;;;;;10.55;56.66;99650.64;436545;1256;137967;-71
2023/06/13 01:33:56;;;;;;;2.20;0.80;;;;;;;10.57;56.87;99637.03;436265;1254;138692;-71
2023/06/13 01:43:59;;;;;;;1.70;0.90;;;;;;;10.39;57.14;99643.00;436496;1255;139767;-70
2023/06/13 01:54:06;;;;;;;1.00;0.50;;;;;;;10.13;57.48;99640.21;436143;1251;140894;-70
2023/06/13 02:04:09;;;;;;;0.90;0.70;;;;;;;10.00;57.77;99638.05;436511;1255;139189;-70
2023/06/13 02:14:12;;;;;;;2.50;0.90;;;;;;;10.00;58.13;99638.91;436196;1257;138726;-70
2023/06/13 02:24:16;;;;;;;1.50;0.70;;;;;;;10.06;58.37;99649.91;436117;1256;138075;-72
2023/06/13 02:34:19;;;;;;;1.60;1.10;;;;;;;10.06;58.38;99656.01;436298;1257;138956;-71
2023/06/13 02:44:22;;;;;;;2.10;1.10;;;;;;;9.96;58.80;99664.30;436173;1255;138260;-70
2023/06/13 02:54:26;;;;;;;1.10;1.10;;;;;;;10.00;59.06;99675.42;436085;1256;138182;-70
2023/06/13 03:04:31;;;;;;;2.90;1.30;;;;;;;9.97;59.52;99674.38;436160;1257;139266;-70
2023/06/13 03:14:34;;;;;;;3.10;1.40;;;;;;;9.79;60.52;99674.95;435880;1256;139112;-71
2023/06/13 03:24:37;;;;;;;2.90;1.20;;;;;;;9.65;61.04;99674.70;435837;1254;139252;-71
2023/06/13 03:34:43;;;;;;;1.60;1.20;;;;;;;9.55;61.66;99679.11;435691;1254;138767;-69
2023/06/13 03:44:48;;;;;;;2.10;1.10;;;;;;;9.48;62.28;99678.48;436135;1253;144178;-70
2023/06/13 03:54:51;;;;;;;1.20;1.10;;;;;;;9.58;62.38;99690.66;436521;1256;139824;-72
2023/06/13 04:04:56;;;;;;;1.20;1.10;;;;;;;9.76;62.39;99689.23;436039;1256;140036;-70
2023/06/13 04:14:59;;;;;;;3.00;1.10;;;;;;;10.15;62.16;99692.89;436081;1254;139142;-70
2023/06/13 04:25:03;;;;;;;1.20;1.00;;;;;;;10.64;61.65;99694.85;435871;1256;140898;-69
2023/06/13 04:35:07;;;;;;;3.40;2.00;;;;;;;11.12;60.91;99693.57;436353;1255;141158;-72
2023/06/13 04:45:10;;;;;;;1.70;1.60;;;;;;;11.61;59.88;99688.83;437206;1251;139167;-70
2023/06/13 04:55:13;;;;;;;2.80;1.50;;;;;;;11.92;58.93;99677.44;436974;1251;140578;-71
2023/06/13 05:05:18;;;;;;;1.80;1.40;;;;;;;12.30;58.37;99675.03;436987;1251;139693;-69
2023/06/13 05:15:23;;;;;;;2.80;2.20;;;;;;;13.05;57.22;99672.09;436533;1254;138950;-71
2023/06/13 05:25:26;;;;;;;4.90;1.10;;;;;;;14.35;55.64;99666.34;436819;1251;138965;-72
2023/06/13 05:35:31;;;;;;;2.80;1.40;;;;;;;16.80;52.29;99648.51;436675;1254;137940;-71
2023/06/13 05:45:54;;;;;;;2.30;1.20;;;;;;;25.00;45.70;99625.48;436153;1251;138788;-72
2023/06/13 05:55:57;;;;;;;1.40;0.70;;;;;;;33.49;34.02;99615.79;436241;1254;138697;-70
2023/06/13 06:06:00;;;;;;;0.90;0.70;;;;;;;37.44;26.72;99616.48;435849;1254;139644;-70
2023/06/13 06:16:04;;;;;;;1.20;1.00;;;;;;;36.87;23.25;99624.11;436590;1251;138652;-72
2023/06/13 06:26:07;;;;;;;0.80;0.80;;;;;;;39.28;21.60;99625.27;436488;1254;139134;-71
2023/06/13 06:36:10;;;;;;;2.10;1.30;;;;;;;42.51;19.20;99630.63;436295;1251;138588;-71
2023/06/13 06:46:13;;;;;;;2.70;1.50;;;;;;;44.14;17.45;99634.63;436203;1254;138468;-71
2023/06/13 06:56:16;;;;;;;2.20;1.50;;;;;;;38.49;17.94;99631.67;435803;1251;139626;-71
2023/06/13 07:06:19;;;;;;;1.80;1.50;;;;;;;29.18;22.45;99626.59;435982;1251;138743;-70
2023/06/13 07:16:22;;;;;;;1.50;1.40;;;;;;;24.62;26.77;99629.19;435988;1254;138399;-70
2023/06/13 07:26:26;;;;;;;2.40;1.50;;;;;;;22.28;29.76;99621.70;435812;1254;142780;-70
2023/06/13 07:36:29;;;;;;;4.00;1.40;;;;;;;20.42;32.50;99628.25;435740;1253;139078;-69
2023/06/13 07:46:32;;;;;;;3.40;1.80;;;;;;;19.19;35.03;99625.11;435677;1253;138559;-69
2023/06/13 07:56:36;;;;;;;4.90;2.10;;;;;;;18.50;36.63;99611.52;435763;1254;138301;-69
2023/06/13 08:06:39;;;;;;;1.90;1.70;;;;;;;17.80;38.10;99610.39;435839;1253;138509;-69
2023/06/13 08:16:43;;;;;;;2.30;1.90;;;;;;;17.31;39.63;99617.23;436224;1251;138587;-70
2023/06/13 08:26:49;;;;;;;2.70;1.70;;;;;;;17.08;40.18;99621.52;436500;1254;138386;-71
2023/06/13 08:36:56;;;;;;;2.30;2.10;;;;;;;16.86;41.22;99616.46;436528;1254;139581;-68
2023/06/13 08:46:59;;;;;;;2.80;2.20;;;;;;;17.49;41.21;99612.36;436801;1251;138080;-70
2023/06/13 08:57:06;;;;;;;3.40;2.70;;;;;;;18.14;40.72;99614.13;436750;1251;140847;-69
2023/06/13 09:07:11;;;;;;;2.40;2.20;;;;;;;19.02;39.91;99610.98;436679;1251;138155;-69
2023/06/13 09:17:15;;;;;;;2.60;2.20;;;;;;;19.22;39.68;99611.55;436315;1254;137992;-69
2023/06/13 09:27:19;;;;;;;6.00;2.00;;;;;;;18.89;39.92;99609.89;436970;1251;138932;-69
2023/06/13 09:37:25;;;;;;;2.70;2.50;;;;;;;18.66;40.17;99606.50;436365;1254;138137;-70
2023/06/13 09:47:29;;;;;;;6.30;2.50;;;;;;;18.32;40.87;99604.30;436699;1250;138553;-70
2023/06/13 09:57:32;;;;;;;2.10;2.00;;;;;;;17.76;41.39;99606.83;436128;1254;138116;-69
2023/06/13 10:07:56;;;;;;;2.60;2.00;;;;;;;16.92;42.85;99606.87;435538;1253;138882;-70
2023/06/13 10:18:02;;;;;;;2.70;2.40;;;;;;;16.39;43.92;99610.49;446045;1250;140219;-69
2023/06/13 10:28:16;;;;;;;2.40;1.90;;;;;;;16.36;44.64;99607.23;436209;1254;138134;-70
2023/06/13 10:38:45;;;;;;;2.40;1.70;;;;;;;16.40;45.00;99598.36;436388;1254;138898;-69
2023/06/13 10:48:50;;;;;;;2.30;2.00;;;;;;;17.09;44.77;99587.44;435913;1251;139105;-70
2023/06/13 10:59:02;;;;;;;2.40;1.90;;;;;;;17.88;43.52;99578.83;436267;1250;139363;-69
2023/06/13 11:09:22;;;;;;;4.70;1.70;;;;;;;18.56;42.60;99571.10;448903;1251;139544;-71
2023/06/13 11:19:27;;;;;;;1.40;1.30;;;;;;;17.82;43.13;99571.08;439652;1250;138645;-69
2023/06/13 11:29:32;;;;;;;2.50;2.30;;;;;;;17.09;44.20;99577.61;436477;1254;139179;-70
2023/06/13 11:39:40;;;;;;;2.80;1.80;;;;;;;16.09;45.63;99580.20;436223;1254;138210;-71
2023/06/13 11:49:56;;;;;;;3.70;1.90;;;;;;;15.40;47.38;99578.29;436877;1254;138615;-71
2023/06/13 11:59:59;;;;;;;2.20;2.00;;;;;;;14.79;49.20;99584.02;436342;1251;138279;-69
2023/06/13 12:10:03;;;;;;;2.90;1.60;;;;;;;14.70;50.19;99580.31;436310;1250;139866;-69
2023/06/13 12:20:10;;;;;;;4.10;2.20;;;;;;;15.01;50.09;99578.02;436284;1253;139164;-71
2023/06/13 12:30:17;;;;;;;3.40;1.70;;;;;;;15.53;50.25;99584.11;443417;1251;138178;-70
2023/06/13 12:40:30;;;;;;;1.70;1.60;;;;;;;15.97;49.92;99579.88;436188;1250;138666;-70
2023/06/13 12:50:37;;;;;;;4.10;2.40;;;;;;;16.38;49.58;99578.59;447603;1250;139198;-70
2023/06/13 13:00:46;;;;;;;2.30;2.20;;;;;;;16.42;49.51;99572.04;436133;1254;139200;-69
2023/06/13 13:10:50;;;;;;;1.90;1.70;;;;;;;16.50;49.58;99572.91;436844;1253;138105;-70
2023/06/13 13:20:53;;;;;;;2.10;1.10;;;;;;;16.07;49.59;99564.70;436255;1251;139399;-70
2023/06/13 13:30:56;;;;;;;1.20;1.10;;;;;;;15.59;50.32;99556.92;435920;1254;138939;-70
2023/06/13 13:41:05;;;;;;;1.10;1.00;;;;;;;14.98;51.64;99565.77;436075;1254;137934;-69
2023/06/13 13:51:08;;;;;;;4.50;1.20;;;;;;;14.78;52.17;99557.33;435931;1254;139026;-70
2023/06/13 14:01:11;;;;;;;2.60;1.00;;;;;;;14.70;52.77;99555.66;436788;1253;138214;-70
2023/06/13 14:11:14;;;;;;;1.40;1.30;;;;;;;14.69;53.58;99555.73;436181;1250;138452;-69
2023/06/13 14:21:17;;;;;;;2.30;1.40;;;;;;;14.60;54.52;99554.52;436073;1254;139398;-70
2023/06/13 14:31:20;;;;;;;1.50;1.00;;;;;;;14.88;54.56;99549.94;436060;1255;139160;-71
2023/06/13 14:41:24;;;;;;;3.80;1.40;;;;;;;15.44;53.92;99545.66;435893;1254;139619;-70
2023/06/13 14:51:27;;;;;;;2.00;1.70;;;;;;;15.71;53.31;99544.15;435506;1253;141367;-70
2023/06/13 15:01:32;;;;;;;2.90;2.40;;;;;;;15.50;53.54;99544.80;435555;1251;139281;-71
2023/06/13 15:11:35;;;;;;;2.60;2.40;;;;;;;15.12;54.85;99548.36;439567;1254;139415;-70
2023/06/13 15:21:38;;;;;;;3.20;2.90;;;;;;;15.12;55.58;99542.67;437407;1251;138715;-70
2023/06/13 15:31:42;;;;;;;3.30;2.80;;;;;;;15.13;55.86;99542.99;436784;1253;138610;-71
2023/06/13 15:41:45;;;;;;;3.50;3.20;;;;;;;14.95;56.42;99541.84;437587;1253;139036;-71
2023/06/13 15:51:48;;;;;;;3.20;3.00;;;;;;;15.02;56.56;99539.33;436658;1253;138954;-70
2023/06/13 16:01:52;;;;;;;4.70;3.50;;;;;;;14.98;56.64;99543.84;436509;1253;138399;-69
2023/06/13 16:11:55;;;;;;;2.50;2.10;;;;;;;14.96;56.61;99544.88;436608;1255;139251;-71
2023/06/13 16:21:58;;;;;;;2.80;2.60;;;;;;;14.88;56.79;99548.58;436232;1255;138934;-70
2023/06/13 16:32:03;;;;;;;3.30;2.00;;;;;;;14.89;56.92;99556.27;436050;1256;139547;-70
2023/06/13 16:42:07;;;;;;;3.30;3.00;;;;;;;14.69;57.07;99564.52;436140;1251;138393;-69
2023/06/13 16:52:10;;;;;;;2.40;2.20;;;;;;;14.54;57.46;99566.40;436497;1256;138166;-68
2023/06/13 17:02:13;;;;;;;3.00;2.80;;;;;;;14.33;57.85;99565.11;436700;1255;139368;-69
2023/06/13 17:12:16;;;;;;;4.30;3.90;;;;;;;14.24;58.36;99562.33;436837;1254;138576;-69
2023/06/13 17:22:19;;;;;;;3.50;3.00;;;;;;;14.12;58.93;99566.42;436573;1255;139327;-69
2023/06/13 17:32:22;;;;;;;3.30;3.10;;;;;;;14.04;59.78;99569.05;436234;1256;138429;-69
2023/06/13 17:42:25;;;;;;;3.50;3.20;;;;;;;13.89;60.48;99577.69;437214;1254;139816;-68
2023/06/13 17:52:29;;;;;;;4.70;4.30;;;;;;;13.84;61.13;99581.24;436481;1253;139717;-69
2023/06/13 18:02:32;;;;;;;6.10;3.90;;;;;;;13.72;61.83;99578.67;436537;1253;138820;-69
2023/06/13 18:12:36;;;;;;;4.20;3.80;;;;;;;13.65;62.34;99569.70;436253;1256;138976;-68
2023/06/13 18:22:39;;;;;;;6.00;4.80;;;;;;;13.60;62.81;99565.02;436390;1251;138590;-69
2023/06/13 18:32:42;;;;;;;4.90;4.40;;;;;;;13.53;63.13;99559.92;436425;1256;139497;-68
2023/06/13 18:42:45;;;;;;;5.00;4.50;;;;;;;13.47;63.48;99548.41;436703;1256;139371;-69
2023/06/13 18:53:00;;;;;;;6.30;5.60;;;;;;;13.36;63.91;99550.46;436674;1255;138932;-69
2023/06/13 19:03:03;;;;;;;8.00;6.90;;;;;;;13.24;64.47;99547.33;436238;1256;139407;-68
2023/06/13 19:13:12;;;;;;;8.00;7.20;;;;;;;13.18;65.05;99550.89;435791;1256;139102;-69
2023/06/13 19:23:18;;;;;;;9.00;7.70;;;;;;;13.11;65.42;99553.02;436038;1256;140745;-68
2023/06/13 19:33:22;;;;;;;8.80;7.90;;;;;;;13.02;65.85;99557.34;436071;1256;138833;-68
2023/06/13 19:43:26;;;;;;;8.10;6.40;;;;;;;13.02;66.37;99561.73;436661;1254;138830;-68
2023/06/13 19:53:29;;;;;;;8.30;6.70;;;;;;;13.15;66.53;99568.02;436843;1251;138795;-68
2023/06/13 20:03:36;;;;;;;9.50;8.50;;;;;;;13.28;66.73;99572.09;436462;1255;138813;-68
2023/06/13 20:13:39;;;;;;;8.60;7.70;;;;;;;13.35;67.20;99573.55;436556;1256;142614;-68
2023/06/13 20:23:42;;;;;;;8.70;7.90;;;;;;;13.35;68.32;99571.62;436417;1257;140494;-68
2023/06/13 20:33:45;;;;;;;8.70;8.00;;;;;;;13.30;69.04;99562.80;436511;1257;140725;-68
2023/06/13 20:43:49;;;;;;;7.80;6.90;;;;;;;13.20;69.71;99553.20;436395;1255;139598;-68
2023/06/13 20:53:52;;;;;;;8.10;6.70;;;;;;;13.08;71.01;99549.73;436550;1251;139367;-67
2023/06/13 21:03:55;;;;;;;6.70;5.80;;;;;;;12.95;72.40;99563.48;436764;1256;139676;-69
2023/06/13 21:13:58;;;;;;;7.90;6.30;;;;;;;12.85;73.59;99572.10;436147;1254;139532;-68
2023/06/13 21:24:01;;;;;;;14.10;6.70;;;;;;;12.83;74.71;99581.08;435805;1257;140544;-68
2023/06/13 21:34:05;;;;;;;5.70;5.20;;;;;;;12.79;75.50;99581.73;436262;1255;140133;-68
2023/06/13 21:44:08;;;;;;;5.70;5.20;;;;;;;12.71;76.04;99573.13;436122;1254;139094;-68
2023/06/13 21:54:11;;;;;;;6.70;5.10;;;;;;;12.74;76.69;99572.55;436188;1257;139695;-69
2023/06/13 22:04:14;;;;;;;4.60;4.20;;;;;;;12.73;77.12;99580.23;436205;1255;139074;-69
2023/06/13 22:14:17;;;;;;;3.90;3.60;;;;;;;12.73;77.33;99575.84;436279;1251;139567;-71
2023/06/13 22:24:21;;;;;;;5.20;4.70;;;;;;;12.74;77.89;99579.64;436272;1251;140125;-67
2023/06/13 22:34:24;;;;;;;4.40;4.00;;;;;;;12.72;78.08;99580.44;436462;1252;139396;-67
2023/06/13 22:44:27;;;;;;;4.50;4.10;;;;;;;12.75;78.39;99576.02;436201;1251;138906;-68
2023/06/13 22:54:30;;;;;;;4.10;3.70;;;;;;;12.72;79.02;99571.34;436275;1251;139225;-69
2023/06/13 23:04:33;;;;;;;4.40;3.90;;;;;;;12.63;79.79;99568.77;436167;1253;139879;-69
2023/06/13 23:14:36;;;;;;;4.90;4.50;;;;;;;12.51;80.29;99569.70;436169;1254;138830;-68
2023/06/13 23:24:41;;;;;;;3.90;3.40;;;;;;;12.41;81.51;99569.54;436454;1252;139649;-69
2023/06/13 23:34:44;;;;;;;3.50;3.20;;;;;;;12.28;82.48;99567.80;436696;1252;140459;-67
2023/06/13 23:44:48;;;;;;;3.30;3.00;;;;;;;12.19;83.57;99569.01;436365;1254;139131;-68
2023/06/13 23:54:51;;;;;;;2.70;2.50;;;;;;;12.10;84.07;99563.27;436235;1254;139836;-68
